createdAt,value
2023-09-18T00:00:46.148Z,1.90
2023-09-18T00:03:33.427Z,2.40
2023-09-18T00:06:00.501Z,2.20
2023-09-18T00:08:28.092Z,2.20
2023-09-18T00:10:56.344Z,2.57
2023-09-18T00:13:24.851Z,2.47
2023-09-18T00:15:56.004Z,2.80
2023-09-18T00:18:24.088Z,2.65
2023-09-18T00:20:53.408Z,2.70
2023-09-18T00:23:20.837Z,2.50
2023-09-18T00:25:48.183Z,3.17
2023-09-18T00:28:15.542Z,3.15
2023-09-18T00:30:50.780Z,3.10
2023-09-18T00:33:21.003Z,3.10
2023-09-18T00:35:52.201Z,3.20
2023-09-18T00:38:20.988Z,2.97
2023-09-18T00:40:48.830Z,2.83
2023-09-18T00:43:16.170Z,3.15
2023-09-18T00:45:46.685Z,2.78
2023-09-18T00:48:16.594Z,3.47
2023-09-18T00:50:46.272Z,3.20
2023-09-18T00:53:20.563Z,3.30
2023-09-18T00:55:47.729Z,3.15
2023-09-18T00:58:15.336Z,2.90
2023-09-18T01:00:42.680Z,2.40
2023-09-18T01:03:10.151Z,2.65
2023-09-18T01:05:37.859Z,2.72
2023-09-18T01:08:06.349Z,3.10
2023-09-18T01:10:40.413Z,3.13
2023-09-18T01:13:17.346Z,3.27
2023-09-18T01:15:51.794Z,3.00
2023-09-18T01:18:19.774Z,3.13
2023-09-18T01:20:46.921Z,3.58
2023-09-18T01:23:14.195Z,3.00
2023-09-18T01:25:42.423Z,2.83
2023-09-18T01:28:09.774Z,3.38
2023-09-18T01:30:36.671Z,3.50
2023-09-18T01:33:05.533Z,3.08
2023-09-18T01:35:32.861Z,2.75
2023-09-18T01:38:04.530Z,2.80
2023-09-18T01:40:32.671Z,3.00
2023-09-18T01:43:00.147Z,3.05
2023-09-18T01:45:27.146Z,2.90
2023-09-18T01:47:54.727Z,2.80
2023-09-18T01:50:21.727Z,3.10
2023-09-18T01:52:49.067Z,3.63
2023-09-18T01:55:16.126Z,3.17
2023-09-18T01:57:43.924Z,3.20
2023-09-18T02:00:13.208Z,3.20
2023-09-18T02:02:54.180Z,3.20
2023-09-18T02:05:29.063Z,2.78
2023-09-18T02:07:57.703Z,2.55
2023-09-18T02:10:25.207Z,2.55
2023-09-18T02:12:52.601Z,3.78
2023-09-18T02:15:19.577Z,2.87
2023-09-18T02:17:46.951Z,2.72
2023-09-18T02:20:15.140Z,2.55
2023-09-18T02:22:42.509Z,2.88
2023-09-18T02:25:09.759Z,3.20
2023-09-18T02:27:37.062Z,3.50
2023-09-18T02:30:04.445Z,3.50
2023-09-18T02:32:32.455Z,3.60
2023-09-18T02:34:59.987Z,3.83
2023-09-18T02:37:27.444Z,4.20
2023-09-18T02:39:54.353Z,4.10
2023-09-18T02:42:21.716Z,3.70
2023-09-18T02:44:48.668Z,4.18
2023-09-18T02:47:16.145Z,4.07
2023-09-18T02:49:43.244Z,3.55
2023-09-18T02:52:10.789Z,3.63
2023-09-18T02:54:37.991Z,3.70
2023-09-18T02:57:05.651Z,4.07
2023-09-18T02:59:33.476Z,3.85
2023-09-18T03:02:00.981Z,3.30
2023-09-18T03:04:28.028Z,3.33
2023-09-18T03:06:56.061Z,2.90
2023-09-18T03:09:22.979Z,2.88
2023-09-18T03:11:50.386Z,3.85
2023-09-18T03:14:17.422Z,3.67
2023-09-18T03:16:45.616Z,3.73
2023-09-18T03:19:12.592Z,3.20
2023-09-18T03:21:40.224Z,3.72
2023-09-18T03:24:07.666Z,4.05
2023-09-18T03:26:35.238Z,3.58
2023-09-18T03:29:03.624Z,3.90
2023-09-18T03:31:31.391Z,3.20
2023-09-18T03:33:58.866Z,3.17
2023-09-18T03:36:27.842Z,3.60
2023-09-18T03:38:55.259Z,3.40
2023-09-18T03:41:22.570Z,3.80
2023-09-18T03:43:50.558Z,3.60
2023-09-18T03:46:17.861Z,2.90
2023-09-18T03:48:48.988Z,2.65
2023-09-18T03:51:17.589Z,2.97
2023-09-18T03:53:44.940Z,2.80
2023-09-18T03:56:12.561Z,2.58
2023-09-18T03:58:39.521Z,2.67
2023-09-18T04:01:06.837Z,2.67
2023-09-18T04:03:34.350Z,2.88
2023-09-18T04:06:03.437Z,2.83
2023-09-18T04:08:30.881Z,2.95
2023-09-18T04:11:01.299Z,2.40
2023-09-18T04:13:28.399Z,2.60
2023-09-18T04:15:58.490Z,3.00
2023-09-18T04:18:26.141Z,3.07
2023-09-18T04:20:54.533Z,3.10
2023-09-18T04:23:28.613Z,3.10
2023-09-18T04:25:56.333Z,3.78
2023-09-18T04:28:24.067Z,4.13
2023-09-18T04:30:51.889Z,6.00
2023-09-18T04:33:19.883Z,3.90
2023-09-18T04:35:48.329Z,3.47
2023-09-18T04:38:18.427Z,4.50
2023-09-18T04:40:47.218Z,4.00
2023-09-18T04:43:14.818Z,4.23
2023-09-18T04:45:44.196Z,3.40
2023-09-18T04:48:11.889Z,3.17
2023-09-18T04:50:39.489Z,3.22
2023-09-18T04:53:06.554Z,3.72
2023-09-18T04:55:33.986Z,3.50
2023-09-18T04:58:01.087Z,3.25
2023-09-18T05:00:30.141Z,3.13
2023-09-18T05:02:57.628Z,4.32
2023-09-18T05:05:25.843Z,3.50
2023-09-18T05:07:52.888Z,3.10
2023-09-18T05:10:20.798Z,3.38
2023-09-18T05:12:47.818Z,3.70
2023-09-18T05:15:15.224Z,3.83
2023-09-18T05:17:49.771Z,3.25
2023-09-18T05:20:18.608Z,3.80
2023-09-18T05:22:46.837Z,3.70
2023-09-18T05:25:16.729Z,4.15
2023-09-18T05:27:46.862Z,3.00
2023-09-18T05:30:16.427Z,3.08
2023-09-18T05:32:44.936Z,2.87
2023-09-18T05:35:14.757Z,2.42
2023-09-18T05:37:43.165Z,2.30
2023-09-18T05:40:12.642Z,2.80
2023-09-18T05:42:44.272Z,2.70
2023-09-18T05:45:12.961Z,2.73
2023-09-18T05:47:40.510Z,2.47
2023-09-18T05:50:10.575Z,2.78
2023-09-18T05:52:37.602Z,2.95
2023-09-18T05:55:05.978Z,2.92
2023-09-18T05:57:33.312Z,2.90
2023-09-18T06:00:00.772Z,3.00
2023-09-18T06:02:27.946Z,3.20
2023-09-18T06:05:01.679Z,3.00
2023-09-18T06:07:29.189Z,3.45
2023-09-18T06:09:57.885Z,4.20
2023-09-18T06:12:26.003Z,4.43
2023-09-18T06:14:53.378Z,4.78
2023-09-18T06:17:20.452Z,3.55
2023-09-18T06:19:47.827Z,4.30
2023-09-18T06:22:15.591Z,4.20
2023-09-18T06:24:43.680Z,5.05
2023-09-18T06:27:12.228Z,6.18
2023-09-18T06:29:40.808Z,4.00
2023-09-18T06:32:08.069Z,4.25
2023-09-18T06:34:35.541Z,3.20
2023-09-18T06:37:02.583Z,3.38
2023-09-18T06:39:29.948Z,3.92
2023-09-18T06:41:56.927Z,3.58
2023-09-18T06:44:25.317Z,3.85
2023-09-18T06:46:54.062Z,4.97
2023-09-18T06:49:21.877Z,4.25
2023-09-18T06:51:49.270Z,4.47
2023-09-18T06:54:16.636Z,4.70
2023-09-18T06:56:45.921Z,4.47
2023-09-18T06:59:13.437Z,3.30
2023-09-18T07:01:42.315Z,3.13
2023-09-18T07:04:10.411Z,2.60
2023-09-18T07:06:38.291Z,2.17
2023-09-18T07:09:08.432Z,2.30
2023-09-18T07:11:36.028Z,2.40
2023-09-18T07:14:07.374Z,2.45
2023-09-18T07:16:35.484Z,2.20
2023-09-18T07:19:06.049Z,2.33
2023-09-18T07:21:33.360Z,1.90
2023-09-18T07:24:01.131Z,1.73
2023-09-18T07:26:28.195Z,1.80
2023-09-18T07:28:55.958Z,1.90
2023-09-18T07:31:23.112Z,1.77
2023-09-18T07:33:50.461Z,1.95
2023-09-18T07:36:17.530Z,1.60
2023-09-18T07:38:44.955Z,1.83
2023-09-18T07:41:12.073Z,1.58
2023-09-18T07:43:41.031Z,1.45
2023-09-18T07:46:08.161Z,1.33
2023-09-18T07:48:36.402Z,1.97
2023-09-18T07:51:03.550Z,1.42
2023-09-18T07:53:31.064Z,1.70
2023-09-18T07:56:00.776Z,1.48
2023-09-18T07:58:29.245Z,1.42
2023-09-18T08:00:58.850Z,1.60
2023-09-18T08:03:27.239Z,1.27
2023-09-18T08:05:55.042Z,1.42
2023-09-18T08:08:23.352Z,1.30
2023-09-18T08:10:51.317Z,1.33
2023-09-18T08:13:19.270Z,1.30
2023-09-18T08:15:46.517Z,1.30
2023-09-18T08:18:16.912Z,1.35
2023-09-18T08:20:44.803Z,1.40
2023-09-18T08:23:12.974Z,1.00
2023-09-18T08:25:42.093Z,1.17
2023-09-18T08:28:10.175Z,1.02
2023-09-18T08:30:38.525Z,1.20
2023-09-18T08:33:06.648Z,1.40
2023-09-18T08:35:33.833Z,1.20
2023-09-18T08:38:01.432Z,1.10
2023-09-18T08:40:28.484Z,1.15
2023-09-18T08:42:57.793Z,1.20
2023-09-18T08:45:32.895Z,1.17
2023-09-18T08:48:01.022Z,1.20
2023-09-18T08:50:29.959Z,1.23
2023-09-18T08:52:57.883Z,1.50
2023-09-18T08:55:25.659Z,1.70
2023-09-18T08:57:54.625Z,1.50
2023-09-18T09:00:22.152Z,1.48
2023-09-18T09:02:53.804Z,1.53
2023-09-18T09:05:23.047Z,1.35
2023-09-18T09:07:51.563Z,2.65
2023-09-18T09:10:19.101Z,5.93
2023-09-18T09:12:58.613Z,8.07
2023-09-18T09:15:29.745Z,12.30
2023-09-18T09:18:06.324Z,9.30
2023-09-18T09:20:34.220Z,4.32
2023-09-18T09:23:07.058Z,2.92
2023-09-18T09:25:34.662Z,1.83
2023-09-18T09:28:06.809Z,2.17
2023-09-18T09:30:37.241Z,1.80
2023-09-18T09:33:06.910Z,1.42
2023-09-18T09:35:36.496Z,1.65
2023-09-18T09:38:11.038Z,1.30
2023-09-18T09:40:42.459Z,1.80
2023-09-18T09:43:12.007Z,1.98
2023-09-18T09:45:41.086Z,1.40
2023-09-18T09:48:09.502Z,1.67
2023-09-18T09:50:50.125Z,1.40
2023-09-18T09:53:18.249Z,1.40
2023-09-18T09:55:46.030Z,1.50
2023-09-18T09:58:15.787Z,1.67
2023-09-18T10:00:47.442Z,1.33
2023-09-18T10:03:17.839Z,1.77
2023-09-18T10:05:47.205Z,1.63
2023-09-18T10:08:20.806Z,1.40
2023-09-18T10:10:53.721Z,1.38
2023-09-18T10:13:28.648Z,1.55
2023-09-18T10:15:58.015Z,2.00
2023-09-18T10:18:29.802Z,1.50
2023-09-18T10:21:04.336Z,1.23
2023-09-18T10:23:45.964Z,1.70
2023-09-18T10:26:17.558Z,1.20
2023-09-18T10:28:45.751Z,1.13
2023-09-18T10:31:14.225Z,1.50
2023-09-18T10:33:42.649Z,1.75
2023-09-18T10:36:12.430Z,1.70
2023-09-18T10:38:40.684Z,1.30
2023-09-18T10:41:10.228Z,1.42
2023-09-18T10:43:37.510Z,1.90
2023-09-18T10:46:05.185Z,1.65
2023-09-18T10:48:33.327Z,1.63
2023-09-18T10:51:06.058Z,1.80
2023-09-18T10:53:33.806Z,1.50
2023-09-18T10:56:03.138Z,1.60
2023-09-18T10:58:30.669Z,1.60
2023-09-18T11:00:58.838Z,1.85
2023-09-18T11:03:26.582Z,1.60
2023-09-18T11:06:05.303Z,1.70
2023-09-18T11:08:44.554Z,1.40
2023-09-18T11:11:14.619Z,1.42
2023-09-18T11:13:46.891Z,1.77
2023-09-18T11:16:29.082Z,1.42
2023-09-18T11:19:00.190Z,1.80
2023-09-18T11:21:32.369Z,1.53
2023-09-18T11:24:07.231Z,1.40
2023-09-18T11:26:39.113Z,1.40
2023-09-18T11:29:10.587Z,1.23
2023-09-18T11:31:55.195Z,1.20
2023-09-18T11:34:36.411Z,1.40
2023-09-18T11:37:20.241Z,1.35
2023-09-18T11:39:47.768Z,1.20
2023-09-18T11:42:21.187Z,1.30
2023-09-18T11:44:48.747Z,1.10
2023-09-18T11:47:22.915Z,1.63
2023-09-18T11:49:56.089Z,1.42
2023-09-18T11:52:24.263Z,1.65
2023-09-18T11:54:52.503Z,1.50
2023-09-18T11:57:23.274Z,1.15
2023-09-18T11:59:52.000Z,1.57
2023-09-18T12:02:37.145Z,1.60
2023-09-18T12:05:18.839Z,1.30
2023-09-18T12:07:47.851Z,1.30
2023-09-18T12:10:18.518Z,1.30
2023-09-18T12:12:46.112Z,1.20
2023-09-18T12:15:15.039Z,1.30
2023-09-18T12:17:42.558Z,1.10
2023-09-18T12:20:20.152Z,1.00
2023-09-18T12:22:54.984Z,1.10
2023-09-18T12:25:25.100Z,1.60
2023-09-18T12:27:57.187Z,1.30
2023-09-18T12:30:24.874Z,1.17
2023-09-18T12:32:52.520Z,1.40
2023-09-18T12:35:20.171Z,1.10
2023-09-18T12:37:47.222Z,1.10
2023-09-18T12:40:23.905Z,1.10
2023-09-18T12:42:56.996Z,1.10
2023-09-18T12:45:25.675Z,1.23
2023-09-18T12:47:55.292Z,0.90
2023-09-18T12:50:23.208Z,1.10
2023-09-18T12:52:50.187Z,1.00
2023-09-18T12:55:28.572Z,1.20
2023-09-18T12:57:56.960Z,1.13
2023-09-18T13:00:24.917Z,1.20
2023-09-18T13:02:56.404Z,1.13
2023-09-18T13:05:28.748Z,1.60
2023-09-18T13:07:57.093Z,1.00
2023-09-18T13:10:28.227Z,1.38
2023-09-18T13:12:57.233Z,1.05
2023-09-18T13:15:32.274Z,1.10
2023-09-18T13:18:01.132Z,0.88
2023-09-18T13:20:30.609Z,0.80
2023-09-18T13:23:00.008Z,1.08
2023-09-18T13:25:36.974Z,1.00
2023-09-18T13:28:07.032Z,1.00
2023-09-18T13:30:37.253Z,0.90
2023-09-18T13:33:07.560Z,0.98
2023-09-18T13:35:40.605Z,0.90
2023-09-18T13:38:09.157Z,1.00
2023-09-18T13:40:39.788Z,1.00
2023-09-18T13:43:07.818Z,1.05
2023-09-18T13:45:36.917Z,0.98
2023-09-18T13:48:05.839Z,1.00
2023-09-18T13:50:34.465Z,1.00
2023-09-18T13:53:04.164Z,0.90
2023-09-18T13:55:32.252Z,0.98
2023-09-18T13:57:59.304Z,1.10
2023-09-18T14:00:27.910Z,0.90
2023-09-18T14:02:55.467Z,0.90
2023-09-18T14:05:23.165Z,0.90
2023-09-18T14:07:50.437Z,0.90
2023-09-18T14:10:19.716Z,1.00
2023-09-18T14:12:46.689Z,0.80
2023-09-18T14:15:14.367Z,1.00
2023-09-18T14:17:41.499Z,0.87
2023-09-18T14:20:09.173Z,0.98
2023-09-18T14:22:37.181Z,0.90
2023-09-18T14:25:07.988Z,0.93
2023-09-18T14:27:36.887Z,1.10
2023-09-18T14:30:08.928Z,0.80
2023-09-18T14:32:40.017Z,1.10
2023-09-18T14:35:09.817Z,1.00
2023-09-18T14:37:38.264Z,1.10
2023-09-18T14:40:06.450Z,1.00
2023-09-18T14:42:34.641Z,1.00
2023-09-18T14:45:03.003Z,0.90
2023-09-18T14:47:30.947Z,1.30
2023-09-18T14:50:00.047Z,0.93
2023-09-18T14:52:27.513Z,1.00
2023-09-18T14:54:55.240Z,0.70
2023-09-18T14:57:22.651Z,1.00
2023-09-18T14:59:50.311Z,0.70
2023-09-18T15:02:19.419Z,0.90
2023-09-18T15:04:47.225Z,1.00
2023-09-18T15:07:15.207Z,1.00
2023-09-18T15:09:42.656Z,0.93
2023-09-18T15:12:10.344Z,1.00
2023-09-18T15:14:38.626Z,1.23
2023-09-18T15:17:05.757Z,1.17
2023-09-18T15:19:33.916Z,1.10
2023-09-18T15:22:02.736Z,1.10
2023-09-18T15:24:30.054Z,1.00
2023-09-18T15:26:58.240Z,1.00
2023-09-18T15:29:25.977Z,1.00
2023-09-18T15:31:53.110Z,0.97
2023-09-18T15:34:23.530Z,0.90
2023-09-18T15:36:51.122Z,1.30
2023-09-18T15:39:18.683Z,1.05
2023-09-18T15:41:45.652Z,1.20
2023-09-18T15:44:15.215Z,1.00
2023-09-18T15:46:42.135Z,1.27
2023-09-18T15:49:09.472Z,1.00
2023-09-18T15:51:36.400Z,1.05
2023-09-18T15:54:05.273Z,1.15
2023-09-18T15:56:34.747Z,1.00
2023-09-18T15:59:02.239Z,1.10
2023-09-18T16:01:29.195Z,1.10
2023-09-18T16:03:58.245Z,1.00
2023-09-18T16:06:27.089Z,1.23
2023-09-18T16:08:58.216Z,1.13
2023-09-18T16:11:25.396Z,1.00
2023-09-18T16:13:54.458Z,1.10
2023-09-18T16:16:24.492Z,1.20
2023-09-18T16:18:51.924Z,1.20
2023-09-18T16:21:18.900Z,1.00
2023-09-18T16:23:46.231Z,1.05
2023-09-18T16:26:13.235Z,0.98
2023-09-18T16:28:40.617Z,0.90
2023-09-18T16:31:09.827Z,1.00
2023-09-18T16:33:37.453Z,1.10
2023-09-18T16:36:05.369Z,1.00
2023-09-18T16:38:32.364Z,0.90
2023-09-18T16:40:59.695Z,1.00
2023-09-18T16:46:02.745Z,1.10
2023-09-18T16:48:31.944Z,1.00
2023-09-18T16:51:01.232Z,1.17
2023-09-18T16:53:28.512Z,1.00
2023-09-18T16:55:56.027Z,1.08
2023-09-18T16:58:23.020Z,0.93
2023-09-18T17:00:50.260Z,1.02
2023-09-18T17:03:17.494Z,0.80
2023-09-18T17:05:44.904Z,0.93
2023-09-18T17:08:12.153Z,0.90
2023-09-18T17:10:41.449Z,0.80
2023-09-18T17:13:12.724Z,1.02
2023-09-18T17:16:12.716Z,1.10
2023-09-18T17:19:10.683Z,0.80
2023-09-18T17:21:44.190Z,1.00
2023-09-18T17:24:11.773Z,1.90
2023-09-18T17:26:39.121Z,1.83
2023-09-18T17:29:06.893Z,2.80
2023-09-18T17:31:34.972Z,4.18
2023-09-18T17:34:03.176Z,4.22
2023-09-18T17:36:41.020Z,4.17
2023-09-18T17:39:11.425Z,4.68
2023-09-18T17:41:38.766Z,4.13
2023-09-18T17:44:06.754Z,4.43
2023-09-18T17:46:34.781Z,3.67
2023-09-18T17:49:03.404Z,2.60
2023-09-18T17:51:35.318Z,2.28
2023-09-18T17:54:06.699Z,1.80
2023-09-18T17:56:48.956Z,1.77
2023-09-18T17:59:18.749Z,1.35
2023-09-18T18:01:47.274Z,1.50
2023-09-18T18:04:15.271Z,1.50
2023-09-18T18:06:44.767Z,1.80
2023-09-18T18:09:15.348Z,1.75
2023-09-18T18:11:46.796Z,2.10
2023-09-18T18:14:15.167Z,2.00
2023-09-18T18:16:44.447Z,1.95
2023-09-18T18:19:21.360Z,1.80
2023-09-18T18:21:48.920Z,1.50
2023-09-18T18:24:16.456Z,1.45
2023-09-18T18:26:44.415Z,1.80
2023-09-18T18:29:11.961Z,1.65
2023-09-18T18:31:40.263Z,1.65
2023-09-18T18:34:08.416Z,1.80
2023-09-18T18:36:35.745Z,1.80
2023-09-18T18:39:06.391Z,1.53
2023-09-18T18:41:33.797Z,1.40
2023-09-18T18:44:02.407Z,1.60
2023-09-18T18:46:32.475Z,1.58
2023-09-18T18:49:00.491Z,1.60
2023-09-18T18:51:28.477Z,1.50
2023-09-18T18:53:58.580Z,1.40
2023-09-18T18:56:25.899Z,1.50
2023-09-18T18:58:53.217Z,1.50
2023-09-18T19:01:24.958Z,1.85
2023-09-18T19:03:55.264Z,2.30
2023-09-18T19:06:30.616Z,2.60
2023-09-18T19:09:00.064Z,1.98
2023-09-18T19:11:28.785Z,2.60
2023-09-18T19:13:56.840Z,2.60
2023-09-18T19:16:25.254Z,2.60
2023-09-18T19:18:53.284Z,2.50
2023-09-18T19:21:20.566Z,2.78
2023-09-18T19:23:49.117Z,2.60
2023-09-18T19:26:20.094Z,3.10
2023-09-18T19:28:47.275Z,3.20
2023-09-18T19:31:20.532Z,2.95
2023-09-18T19:33:47.991Z,4.32
2023-09-18T19:36:17.488Z,4.93
2023-09-18T19:38:44.919Z,7.35
2023-09-18T19:41:12.702Z,8.83
2023-09-18T19:43:39.992Z,9.95
2023-09-18T19:46:10.029Z,7.75
2023-09-18T19:48:38.800Z,7.28
2023-09-18T19:51:06.308Z,7.65
2023-09-18T19:53:33.687Z,7.80
2023-09-18T19:56:01.332Z,8.40
2023-09-18T19:58:31.510Z,7.70
2023-09-18T20:01:07.476Z,6.80
2023-09-18T20:03:36.410Z,6.53
2023-09-18T20:08:35.786Z,5.25
2023-09-18T20:11:04.980Z,5.22
2023-09-18T20:13:34.558Z,5.22
2023-09-18T20:16:02.402Z,6.57
2023-09-18T20:18:39.823Z,8.13
2023-09-18T20:21:10.295Z,9.82
2023-09-18T20:23:38.765Z,8.02
2023-09-18T20:26:07.614Z,7.15
2023-09-18T20:28:52.853Z,4.88
2023-09-18T20:31:20.317Z,3.70
2023-09-18T20:33:47.804Z,3.45
2023-09-18T20:36:15.630Z,3.45
2023-09-18T20:38:42.643Z,3.90
2023-09-18T20:41:10.092Z,3.10
2023-09-18T20:43:42.203Z,3.20
2023-09-18T20:46:10.414Z,3.13
2023-09-18T20:48:38.284Z,2.70
2023-09-18T20:51:05.950Z,2.45
2023-09-18T20:53:33.072Z,2.28
2023-09-18T20:56:00.338Z,2.30
2023-09-18T20:58:28.317Z,2.45
2023-09-18T21:00:55.569Z,1.98
2023-09-18T21:03:22.702Z,1.73
2023-09-18T21:05:57.373Z,2.05
2023-09-18T21:08:24.679Z,1.70
2023-09-18T21:10:52.052Z,1.98
2023-09-18T21:13:19.096Z,1.60
2023-09-18T21:15:46.399Z,1.75
2023-09-18T21:18:13.515Z,1.63
2023-09-18T21:20:40.823Z,1.83
2023-09-18T21:23:10.968Z,1.70
2023-09-18T21:25:41.026Z,2.00
2023-09-18T21:28:10.766Z,2.33
2023-09-18T21:30:38.561Z,2.70
2023-09-18T21:33:06.986Z,2.50
2023-09-18T21:35:34.743Z,1.88
2023-09-18T21:38:02.358Z,1.92
2023-09-18T21:40:33.225Z,1.70
2023-09-18T21:43:00.799Z,1.65
2023-09-18T21:45:28.029Z,2.00
2023-09-18T21:47:56.020Z,2.10
2023-09-18T21:50:23.778Z,2.10
2023-09-18T21:52:51.014Z,2.00
2023-09-18T21:55:30.347Z,2.22
2023-09-18T21:58:00.094Z,3.77
2023-09-18T22:00:30.152Z,3.28
2023-09-18T22:02:57.543Z,2.78
2023-09-18T22:05:25.694Z,3.30
2023-09-18T22:07:52.641Z,2.60
2023-09-18T22:10:19.959Z,3.10
2023-09-18T22:12:46.952Z,2.85
2023-09-18T22:15:15.845Z,2.70
2023-09-18T22:17:43.118Z,3.00
2023-09-18T22:20:11.182Z,3.47
2023-09-18T22:22:38.328Z,3.73
2023-09-18T22:25:07.229Z,3.80
2023-09-18T22:27:34.249Z,4.82
2023-09-18T22:30:02.009Z,4.55
2023-09-18T22:32:28.968Z,4.00
2023-09-18T22:34:56.400Z,4.23
2023-09-18T22:37:23.354Z,3.60
2023-09-18T22:40:05.901Z,3.10
2023-09-18T22:43:11.422Z,3.28
2023-09-18T22:46:16.479Z,3.42
2023-09-18T22:49:22.283Z,2.60
2023-09-18T22:52:26.992Z,2.95
2023-09-18T22:54:54.978Z,3.20
2023-09-18T22:57:25.690Z,3.20
2023-09-18T22:59:56.197Z,3.00
2023-09-18T23:02:25.444Z,2.90
2023-09-18T23:04:52.954Z,2.60
2023-09-18T23:07:20.573Z,2.63
2023-09-18T23:09:48.355Z,2.47
2023-09-18T23:12:15.873Z,2.40
2023-09-18T23:14:43.441Z,3.20
2023-09-18T23:17:14.274Z,4.28
2023-09-18T23:19:41.463Z,4.43
2023-09-18T23:22:13.033Z,4.07
2023-09-18T23:24:44.922Z,3.40
2023-09-18T23:27:13.368Z,4.23
2023-09-18T23:29:43.644Z,3.55
2023-09-18T23:32:11.678Z,3.30
2023-09-18T23:34:45.229Z,3.47
2023-09-18T23:37:14.090Z,3.08
2023-09-18T23:39:43.658Z,4.50
2023-09-18T23:42:10.989Z,3.58
2023-09-18T23:44:38.412Z,2.53
2023-09-18T23:47:05.815Z,2.67
2023-09-18T23:49:33.043Z,2.47
2023-09-18T23:52:03.842Z,2.43
2023-09-18T23:54:31.250Z,2.50
2023-09-18T23:57:00.251Z,2.90
2023-09-18T23:59:27.371Z,2.55
